Time;durP1;ratioP1;P1;durP2;ratioP2;P2;SDS_P1;SDS_P2;PMS_P1;PMS_P2;Temp;Humidity;BMP_temperature;BMP_pressure;BME280_temperature;BME280_humidity;BME280_pressure;Samples;Min_cycle;Max_cycle;Signal;HPM_P1;HPM_P2
2022/07/26 00:00:26;;;;;;;2.78;0.70;;;;;;;;;;6210829;23;20023;-56
2022/07/26 00:02:53;;;;;;;2.67;1.10;;;;;;;;;;6216760;23;20021;-58
2022/07/26 00:05:21;;;;;;;3.78;0.95;;;;;;;;;;6237090;23;20020;-56
2022/07/26 00:07:48;;;;;;;3.80;0.95;;;;;;;;;;6230459;23;20016;-58
2022/07/26 00:10:14;;;;;;;2.08;0.80;;;;;;;;;;6235113;23;20154;-57
2022/07/26 00:12:41;;;;;;;1.75;1.27;;;;;;;;;;6232308;23;20342;-58
2022/07/26 00:15:09;;;;;;;3.58;1.10;;;;;;;;;;6233931;23;20012;-57
2022/07/26 00:17:35;;;;;;;3.30;0.82;;;;;;;;;;6223072;23;20023;-55
2022/07/26 00:20:02;;;;;;;5.65;1.13;;;;;;;;;;6230929;23;20081;-54
2022/07/26 00:22:38;;;;;;;3.83;0.75;;;;;;;;;;6231704;23;20024;-56
2022/07/26 00:25:06;;;;;;;3.22;0.80;;;;;;;;;;6206970;23;20051;-57
2022/07/26 00:27:35;;;;;;;2.45;0.80;;;;;;;;;;6229361;23;20063;-58
2022/07/26 00:30:02;;;;;;;2.67;1.77;;;;;;;;;;6206804;23;20084;-57
2022/07/26 00:32:29;;;;;;;5.22;1.15;;;;;;;;;;6228610;23;20028;-57
2022/07/26 00:34:55;;;;;;;9.20;1.58;;;;;;;;;;6235602;23;20012;-57
2022/07/26 00:37:23;;;;;;;2.65;1.08;;;;;;;;;;6222907;23;20046;-56
2022/07/26 00:39:51;;;;;;;2.30;0.93;;;;;;;;;;6208801;23;20047;-56
2022/07/26 00:42:18;;;;;;;1.60;1.13;;;;;;;;;;6199750;23;20016;-57
2022/07/26 00:44:45;;;;;;;6.30;1.05;;;;;;;;;;6243091;23;20023;-56
2022/07/26 00:47:12;;;;;;;1.77;1.00;;;;;;;;;;6221474;23;20012;-58
2022/07/26 00:49:39;;;;;;;3.05;1.00;;;;;;;;;;6235676;23;20027;-59
2022/07/26 00:52:06;;;;;;;4.15;1.10;;;;;;;;;;6228078;23;20346;-55
2022/07/26 00:54:34;;;;;;;5.20;0.95;;;;;;;;;;6231970;23;20016;-56
2022/07/26 00:57:02;;;;;;;4.05;1.40;;;;;;;;;;6238857;23;20039;-56
2022/07/26 00:59:28;;;;;;;3.15;0.77;;;;;;;;;;6228616;23;20027;-57
2022/07/26 01:01:55;;;;;;;3.10;1.05;;;;;;;;;;6221908;23;20027;-55
2022/07/26 01:04:22;;;;;;;6.90;1.02;;;;;;;;;;6219704;23;20031;-57
2022/07/26 01:06:49;;;;;;;3.13;0.98;;;;;;;;;;6192205;23;20043;-57
2022/07/26 01:09:16;;;;;;;4.68;1.23;;;;;;;;;;6237959;23;20016;-55
2022/07/26 01:11:44;;;;;;;2.75;1.17;;;;;;;;;;6232599;23;20582;-55
2022/07/26 01:14:12;;;;;;;3.53;1.27;;;;;;;;;;6239146;23;20039;-57
2022/07/26 01:16:39;;;;;;;4.53;1.00;;;;;;;;;;6225032;23;20303;-57
2022/07/26 01:19:06;;;;;;;7.18;1.20;;;;;;;;;;6237561;23;20019;-57
2022/07/26 01:21:34;;;;;;;2.35;0.90;;;;;;;;;;6234469;23;20248;-58
2022/07/26 01:24:01;;;;;;;4.20;1.40;;;;;;;;;;6235973;23;20450;-57
2022/07/26 01:26:27;;;;;;;3.42;1.23;;;;;;;;;;6226044;23;20022;-58
2022/07/26 01:28:54;;;;;;;6.45;1.50;;;;;;;;;;6226715;23;20012;-58
2022/07/26 01:31:20;;;;;;;6.72;1.33;;;;;;;;;;6229912;23;20051;-55
2022/07/26 01:33:47;;;;;;;5.40;1.60;;;;;;;;;;6236395;23;20012;-58
2022/07/26 01:36:13;;;;;;;6.30;1.30;;;;;;;;;;6228710;23;20039;-56
2022/07/26 01:38:41;;;;;;;4.43;1.58;;;;;;;;;;6226824;23;20401;-56
2022/07/26 01:41:08;;;;;;;3.55;1.80;;;;;;;;;;6227055;23;20084;-57
2022/07/26 01:43:35;;;;;;;9.30;1.67;;;;;;;;;;6229658;23;20510;-57
2022/07/26 01:46:01;;;;;;;3.55;1.40;;;;;;;;;;6239801;23;20019;-57
2022/07/26 01:48:28;;;;;;;5.53;1.88;;;;;;;;;;6226751;23;20023;-56
2022/07/26 01:50:54;;;;;;;5.18;1.65;;;;;;;;;;6235305;23;20012;-57
2022/07/26 01:53:22;;;;;;;5.30;1.30;;;;;;;;;;6228758;23;20082;-57
2022/07/26 01:55:49;;;;;;;7.85;1.75;;;;;;;;;;6234488;23;20043;-55
2022/07/26 01:58:16;;;;;;;3.00;1.40;;;;;;;;;;6227507;23;20012;-56
2022/07/26 02:00:43;;;;;;;3.05;1.25;;;;;;;;;;6191129;23;20066;-57
2022/07/26 02:03:09;;;;;;;4.43;1.40;;;;;;;;;;6210101;23;20020;-56
2022/07/26 02:05:36;;;;;;;5.93;1.75;;;;;;;;;;6237647;23;20019;-57
2022/07/26 02:08:03;;;;;;;2.92;1.35;;;;;;;;;;6235042;23;20452;-57
2022/07/26 02:13:13;;;;;;;9.45;1.65;;;;;;;;;;6233350;23;20026;-55
2022/07/26 02:15:40;;;;;;;5.50;1.23;;;;;;;;;;6201859;23;20016;-57
2022/07/26 02:18:07;;;;;;;5.00;1.15;;;;;;;;;;6236879;23;20019;-55
2022/07/26 02:20:34;;;;;;;7.43;1.52;;;;;;;;;;6200974;23;20240;-57
2022/07/26 02:23:01;;;;;;;4.18;1.48;;;;;;;;;;6229682;23;20027;-57
2022/07/26 02:25:27;;;;;;;2.83;1.27;;;;;;;;;;6230704;23;20012;-56
2022/07/26 02:27:54;;;;;;;2.80;1.25;;;;;;;;;;6230820;23;20043;-57
2022/07/26 02:30:22;;;;;;;5.13;1.17;;;;;;;;;;6216588;23;20017;-57
2022/07/26 02:32:49;;;;;;;6.85;1.42;;;;;;;;;;6213203;23;20074;-58
2022/07/26 02:35:15;;;;;;;2.13;1.13;;;;;;;;;;6200260;23;20026;-57
2022/07/26 02:37:42;;;;;;;6.97;1.55;;;;;;;;;;6232423;23;20016;-56
2022/07/26 02:40:09;;;;;;;3.35;1.17;;;;;;;;;;6236011;23;20019;-57
2022/07/26 02:42:36;;;;;;;4.07;1.73;;;;;;;;;;6227009;23;20031;-58
2022/07/26 02:45:03;;;;;;;2.83;1.05;;;;;;;;;;6237767;23;20524;-56
2022/07/26 02:47:31;;;;;;;2.80;1.45;;;;;;;;;;6232169;23;20095;-57
2022/07/26 02:49:58;;;;;;;6.37;1.57;;;;;;;;;;6228488;23;20058;-56
2022/07/26 02:52:25;;;;;;;6.68;1.15;;;;;;;;;;6230930;23;20018;-56
2022/07/26 02:54:52;;;;;;;7.60;1.27;;;;;;;;;;6222905;23;20324;-58
2022/07/26 02:57:18;;;;;;;9.77;1.27;;;;;;;;;;6203389;23;20147;-57
2022/07/26 02:59:45;;;;;;;6.90;1.58;;;;;;;;;;6233150;23;20435;-57
2022/07/26 03:02:11;;;;;;;3.90;1.20;;;;;;;;;;6200785;23;20028;-58
2022/07/26 03:04:39;;;;;;;10.07;1.10;;;;;;;;;;6239179;23;20016;-56
2022/07/26 03:07:06;;;;;;;8.00;1.70;;;;;;;;;;6237885;23;20366;-56
2022/07/26 03:09:32;;;;;;;5.18;1.17;;;;;;;;;;6236736;23;20329;-56
2022/07/26 03:11:59;;;;;;;3.00;1.48;;;;;;;;;;6211607;23;20032;-56
2022/07/26 03:14:25;;;;;;;3.22;1.20;;;;;;;;;;6223681;23;20040;-57
2022/07/26 03:16:52;;;;;;;5.85;1.52;;;;;;;;;;6202439;23;20020;-56
2022/07/26 03:19:18;;;;;;;4.22;1.25;;;;;;;;;;6234966;23;20012;-55
2022/07/26 03:21:46;;;;;;;9.82;1.20;;;;;;;;;;6233583;23;20016;-56
2022/07/26 03:24:12;;;;;;;3.17;1.30;;;;;;;;;;6229541;23;20023;-56
2022/07/26 03:26:39;;;;;;;4.13;1.58;;;;;;;;;;6236739;23;20016;-54
2022/07/26 03:29:06;;;;;;;4.78;0.95;;;;;;;;;;6225390;23;20020;-56
2022/07/26 03:31:32;;;;;;;5.38;1.25;;;;;;;;;;6205250;23;20027;-56
2022/07/26 03:33:59;;;;;;;5.18;1.35;;;;;;;;;;6235228;23;20019;-57
2022/07/26 03:36:25;;;;;;;3.30;1.30;;;;;;;;;;6205563;23;20016;-57
2022/07/26 03:38:53;;;;;;;6.60;1.45;;;;;;;;;;6222856;23;20047;-55
2022/07/26 03:41:20;;;;;;;6.35;2.00;;;;;;;;;;6239620;23;20024;-56
2022/07/26 03:43:46;;;;;;;2.78;1.23;;;;;;;;;;6201892;23;20027;-58
2022/07/26 03:46:13;;;;;;;2.75;1.45;;;;;;;;;;6221271;23;20012;-56
2022/07/26 03:48:39;;;;;;;3.95;0.82;;;;;;;;;;6236309;23;20012;-57
2022/07/26 03:51:06;;;;;;;4.63;1.38;;;;;;;;;;6230249;23;20016;-57
2022/07/26 03:53:33;;;;;;;6.55;1.40;;;;;;;;;;6229671;23;20017;-55
2022/07/26 03:58:45;;;;;;;5.93;1.83;;;;;;;;;;6235627;23;20019;-55
2022/07/26 04:01:12;;;;;;;5.25;1.73;;;;;;;;;;6226573;23;20040;-54
2022/07/26 04:03:38;;;;;;;5.65;1.30;;;;;;;;;;6223189;23;20016;-55
2022/07/26 04:06:05;;;;;;;3.92;1.35;;;;;;;;;;6197344;23;20459;-54
2022/07/26 04:08:31;;;;;;;5.22;1.33;;;;;;;;;;6208553;23;20023;-56
2022/07/26 04:10:58;;;;;;;4.95;1.48;;;;;;;;;;6233901;23;20020;-57
2022/07/26 04:13:26;;;;;;;5.38;1.75;;;;;;;;;;6236789;23;20027;-55
2022/07/26 04:15:53;;;;;;;7.90;1.40;;;;;;;;;;6228674;23;20031;-55
2022/07/26 04:18:19;;;;;;;4.43;1.20;;;;;;;;;;6239000;23;20012;-56
2022/07/26 04:20:46;;;;;;;7.78;1.50;;;;;;;;;;6227047;23;20043;-58
2022/07/26 04:23:13;;;;;;;7.72;2.40;;;;;;;;;;6237799;23;20018;-56
2022/07/26 04:25:39;;;;;;;5.45;1.80;;;;;;;;;;6231069;23;20709;-53
2022/07/26 04:28:06;;;;;;;6.47;1.42;;;;;;;;;;6238094;23;20027;-55
2022/07/26 04:30:34;;;;;;;6.75;2.40;;;;;;;;;;6223479;23;20330;-54
2022/07/26 04:33:00;;;;;;;9.32;1.75;;;;;;;;;;6234898;23;20012;-54
2022/07/26 04:35:27;;;;;;;9.40;1.60;;;;;;;;;;6229624;23;20012;-52
2022/07/26 04:37:54;;;;;;;6.60;1.67;;;;;;;;;;6235244;23;20016;-53
2022/07/26 04:40:22;;;;;;;9.48;1.50;;;;;;;;;;6227642;23;20019;-53
2022/07/26 04:42:49;;;;;;;5.10;1.45;;;;;;;;;;6199285;23;20781;-54
2022/07/26 04:45:15;;;;;;;2.97;1.48;;;;;;;;;;6237042;23;20100;-49
2022/07/26 04:47:44;;;;;;;5.15;1.60;;;;;;;;;;6228403;23;20027;-53
2022/07/26 04:50:11;;;;;;;5.75;1.67;;;;;;;;;;6229800;23;20027;-54
2022/07/26 04:52:37;;;;;;;6.88;1.15;;;;;;;;;;6226904;23;20075;-56
2022/07/26 04:55:04;;;;;;;4.90;1.73;;;;;;;;;;6235928;23;20080;-53
2022/07/26 04:57:31;;;;;;;7.07;1.80;;;;;;;;;;6227683;23;20359;-52
2022/07/26 04:59:57;;;;;;;2.97;1.50;;;;;;;;;;6236537;23;20023;-53
2022/07/26 05:02:24;;;;;;;4.25;1.60;;;;;;;;;;6201408;23;20114;-54
2022/07/26 05:04:52;;;;;;;12.77;1.95;;;;;;;;;;6236387;23;20020;-56
2022/07/26 05:07:18;;;;;;;4.13;1.23;;;;;;;;;;6215277;23;20528;-57
2022/07/26 05:09:45;;;;;;;5.45;1.55;;;;;;;;;;6237095;23;20165;-57
2022/07/26 05:12:11;;;;;;;7.88;1.90;;;;;;;;;;6207751;23;20016;-55
2022/07/26 05:14:38;;;;;;;4.32;1.35;;;;;;;;;;6222897;23;20012;-53
2022/07/26 05:17:04;;;;;;;6.72;2.22;;;;;;;;;;6238842;23;20012;-57
2022/07/26 05:19:31;;;;;;;8.15;1.75;;;;;;;;;;6227311;23;20020;-56
2022/07/26 05:21:59;;;;;;;6.43;1.60;;;;;;;;;;6236970;23;20072;-53
2022/07/26 05:24:25;;;;;;;5.50;1.58;;;;;;;;;;6226460;23;20020;-54
2022/07/26 05:26:52;;;;;;;4.85;1.55;;;;;;;;;;6205222;23;20019;-55
2022/07/26 05:29:18;;;;;;;7.47;1.70;;;;;;;;;;6214265;23;20019;-57
2022/07/26 05:31:45;;;;;;;11.38;2.03;;;;;;;;;;6237374;23;20084;-56
2022/07/26 05:34:12;;;;;;;3.50;1.58;;;;;;;;;;6229419;23;20382;-56
2022/07/26 05:36:39;;;;;;;7.80;1.88;;;;;;;;;;6232026;23;20012;-56
2022/07/26 05:39:07;;;;;;;7.50;1.70;;;;;;;;;;6235983;23;20038;-55
2022/07/26 05:41:33;;;;;;;5.28;1.70;;;;;;;;;;6206329;23;20027;-57
2022/07/26 05:44:00;;;;;;;7.28;2.42;;;;;;;;;;6235946;23;20075;-56
2022/07/26 05:46:27;;;;;;;10.23;1.80;;;;;;;;;;6228896;23;20079;-56
2022/07/26 05:48:53;;;;;;;4.43;1.33;;;;;;;;;;6236805;23;20023;-57
2022/07/26 05:51:20;;;;;;;5.18;1.65;;;;;;;;;;6229703;23;20012;-55
2022/07/26 05:53:47;;;;;;;8.55;2.53;;;;;;;;;;6232517;23;20516;-56
2022/07/26 05:56:15;;;;;;;5.93;1.65;;;;;;;;;;6234425;23;20463;-56
2022/07/26 05:58:42;;;;;;;6.22;1.90;;;;;;;;;;6227893;23;20042;-58
2022/07/26 06:01:09;;;;;;;4.75;1.83;;;;;;;;;;6230427;23;20022;-58
2022/07/26 06:03:36;;;;;;;6.90;1.75;;;;;;;;;;6237384;23;20046;-57
2022/07/26 06:06:04;;;;;;;4.07;1.30;;;;;;;;;;6208063;23;20342;-56
2022/07/26 06:08:30;;;;;;;3.30;1.42;;;;;;;;;;6232849;23;20080;-54
2022/07/26 06:10:57;;;;;;;3.80;1.27;;;;;;;;;;6235540;23;20012;-56
2022/07/26 06:13:24;;;;;;;8.93;1.83;;;;;;;;;;6231939;23;20012;-57
2022/07/26 06:15:52;;;;;;;5.28;1.58;;;;;;;;;;6232466;23;20443;-56
2022/07/26 06:18:18;;;;;;;10.93;2.13;;;;;;;;;;6207965;23;20341;-56
2022/07/26 06:20:47;;;;;;;2.83;1.45;;;;;;;;;;6230592;23;20024;-54
2022/07/26 06:23:14;;;;;;;5.93;1.42;;;;;;;;;;6235466;23;20019;-56
2022/07/26 06:25:40;;;;;;;9.07;2.42;;;;;;;;;;6229919;23;20023;-57
2022/07/26 06:28:08;;;;;;;6.05;1.90;;;;;;;;;;6237636;23;20083;-56
2022/07/26 06:30:36;;;;;;;8.13;1.80;;;;;;;;;;6229506;23;20012;-56
2022/07/26 06:33:03;;;;;;;6.15;2.00;;;;;;;;;;6230128;23;20016;-56
2022/07/26 06:35:30;;;;;;;8.52;2.55;;;;;;;;;;6227912;23;20034;-56
2022/07/26 06:37:58;;;;;;;11.73;1.85;;;;;;;;;;6231356;23;20080;-56
2022/07/26 06:40:25;;;;;;;6.90;1.50;;;;;;;;;;6231509;23;20039;-55
2022/07/26 06:42:51;;;;;;;7.50;1.20;;;;;;;;;;6230308;23;20435;-58
2022/07/26 06:45:18;;;;;;;6.65;1.60;;;;;;;;;;6234738;23;20501;-58
2022/07/26 06:47:46;;;;;;;9.65;1.73;;;;;;;;;;6234040;23;20016;-57
2022/07/26 06:50:12;;;;;;;2.85;1.73;;;;;;;;;;6200794;23;20016;-56
2022/07/26 06:52:39;;;;;;;6.68;1.58;;;;;;;;;;6237284;22;20016;-55
2022/07/26 06:55:07;;;;;;;7.65;1.80;;;;;;;;;;6228746;22;20012;-55
2022/07/26 06:57:34;;;;;;;7.13;1.65;;;;;;;;;;6236039;22;20043;-56
2022/07/26 07:00:00;;;;;;;6.22;1.50;;;;;;;;;;6228418;22;20072;-55
2022/07/26 07:02:27;;;;;;;3.20;1.38;;;;;;;;;;6236937;22;20016;-53
2022/07/26 07:04:55;;;;;;;7.20;1.98;;;;;;;;;;6227531;22;20030;-57
2022/07/26 07:07:22;;;;;;;6.82;1.80;;;;;;;;;;6235284;22;20541;-54
2022/07/26 07:09:48;;;;;;;9.80;1.95;;;;;;;;;;6225221;23;20019;-56
2022/07/26 07:12:15;;;;;;;6.20;1.50;;;;;;;;;;6238303;22;20012;-56
2022/07/26 07:14:41;;;;;;;3.47;1.00;;;;;;;;;;6225753;22;20451;-57
2022/07/26 07:17:08;;;;;;;11.23;1.98;;;;;;;;;;6230686;23;20012;-55
2022/07/26 07:19:35;;;;;;;9.48;2.20;;;;;;;;;;6226278;22;20019;-55
2022/07/26 07:22:03;;;;;;;3.88;1.40;;;;;;;;;;6238668;22;20016;-56
2022/07/26 07:24:30;;;;;;;3.47;1.70;;;;;;;;;;6232276;22;20131;-53
2022/07/26 07:26:58;;;;;;;6.13;1.60;;;;;;;;;;6233270;22;20024;-56
2022/07/26 07:29:25;;;;;;;5.80;1.57;;;;;;;;;;6230140;22;20355;-55
2022/07/26 07:31:52;;;;;;;6.90;1.60;;;;;;;;;;6224481;22;20095;-56
2022/07/26 07:34:21;;;;;;;4.70;1.73;;;;;;;;;;6232980;22;20039;-56
2022/07/26 07:36:48;;;;;;;7.88;1.75;;;;;;;;;;6228420;22;20403;-56
2022/07/26 07:39:16;;;;;;;6.30;1.88;;;;;;;;;;6230202;23;20016;-56
2022/07/26 07:41:43;;;;;;;7.43;2.50;;;;;;;;;;6223582;23;20017;-56
2022/07/26 07:44:10;;;;;;;7.72;1.92;;;;;;;;;;6230077;22;20027;-57
2022/07/26 07:46:36;;;;;;;8.80;1.58;;;;;;;;;;6226885;22;20079;-56
2022/07/26 07:49:03;;;;;;;8.07;1.83;;;;;;;;;;6242202;22;20023;-57
2022/07/26 07:51:29;;;;;;;5.45;1.60;;;;;;;;;;6228185;23;20026;-57
2022/07/26 07:53:56;;;;;;;3.50;1.30;;;;;;;;;;6240466;22;20016;-57
2022/07/26 07:56:24;;;;;;;8.70;1.58;;;;;;;;;;6227740;22;20039;-56
2022/07/26 07:58:51;;;;;;;5.82;1.75;;;;;;;;;;6232856;22;20012;-57
2022/07/26 08:01:18;;;;;;;4.43;1.63;;;;;;;;;;6233430;22;20037;-55
2022/07/26 08:03:44;;;;;;;6.22;1.60;;;;;;;;;;6230495;22;20020;-57
2022/07/26 08:06:11;;;;;;;4.50;1.50;;;;;;;;;;6225135;22;20800;-56
2022/07/26 08:08:38;;;;;;;5.70;1.80;;;;;;;;;;6233592;22;20071;-55
2022/07/26 08:11:04;;;;;;;5.40;1.90;;;;;;;;;;6227892;22;20353;-54
2022/07/26 08:13:33;;;;;;;3.83;1.63;;;;;;;;;;6236108;22;20016;-54
2022/07/26 08:15:59;;;;;;;5.22;1.80;;;;;;;;;;6224548;23;20544;-56
2022/07/26 08:18:26;;;;;;;2.67;1.60;;;;;;;;;;6234194;22;20035;-58
2022/07/26 08:20:52;;;;;;;6.20;2.00;;;;;;;;;;6226352;23;20020;-56
2022/07/26 08:23:19;;;;;;;9.23;2.17;;;;;;;;;;6232562;22;20075;-56
2022/07/26 08:25:46;;;;;;;4.30;1.60;;;;;;;;;;6196535;22;20469;-57
2022/07/26 08:28:15;;;;;;;4.20;1.40;;;;;;;;;;6208232;22;20495;-57
2022/07/26 08:30:43;;;;;;;3.10;1.83;;;;;;;;;;6197156;22;20092;-54
2022/07/26 08:33:09;;;;;;;7.65;1.65;;;;;;;;;;6219566;22;20012;-56
2022/07/26 08:35:36;;;;;;;7.43;1.75;;;;;;;;;;6212424;22;20016;-55
2022/07/26 08:38:03;;;;;;;5.07;2.05;;;;;;;;;;6216419;23;20012;-56
2022/07/26 08:40:29;;;;;;;11.95;2.15;;;;;;;;;;6223016;22;20020;-58
2022/07/26 08:42:57;;;;;;;8.25;2.10;;;;;;;;;;6211370;22;20413;-58
2022/07/26 08:45:24;;;;;;;7.50;1.95;;;;;;;;;;6216192;22;20020;-57
2022/07/26 08:47:52;;;;;;;6.85;1.85;;;;;;;;;;6222543;23;20022;-57
2022/07/26 08:50:19;;;;;;;5.75;2.20;;;;;;;;;;6207507;23;20027;-56
2022/07/26 08:52:46;;;;;;;6.03;1.58;;;;;;;;;;6219035;23;20119;-56
2022/07/26 08:55:15;;;;;;;5.28;1.63;;;;;;;;;;6215688;23;20166;-55
2022/07/26 08:57:42;;;;;;;;;;;;;;;;;;6220603;23;20396;-55
2022/07/26 09:00:17;;;;;;;4.82;1.67;;;;;;;;;;6200303;23;19919;-58
2022/07/26 09:02:43;;;;;;;6.47;1.70;;;;;;;;;;6214603;23;20016;-56
2022/07/26 09:05:11;;;;;;;3.92;1.50;;;;;;;;;;6213968;22;20051;-55
2022/07/26 09:07:38;;;;;;;5.15;1.70;;;;;;;;;;6217252;22;20020;-56
2022/07/26 09:10:06;;;;;;;8.38;2.08;;;;;;;;;;6211709;23;20486;-55
2022/07/26 09:12:33;;;;;;;8.18;2.15;;;;;;;;;;6216260;23;20080;-54
2022/07/26 09:15:00;;;;;;;7.45;2.08;;;;;;;;;;6214349;22;20016;-56
2022/07/26 09:17:37;;;;;;;4.50;2.35;;;;;;;;;;6208394;23;20016;-57
2022/07/26 09:20:06;;;;;;;5.55;2.05;;;;;;;;;;6219191;22;20022;-55
2022/07/26 09:22:34;;;;;;;7.95;1.98;;;;;;;;;;6201519;23;20016;-57
2022/07/26 09:25:01;;;;;;;4.60;1.63;;;;;;;;;;6220751;22;20482;-57
2022/07/26 09:27:34;;;;;;;7.97;2.13;;;;;;;;;;6213047;22;20012;-56
2022/07/26 09:30:05;;;;;;;3.13;1.52;;;;;;;;;;6217938;22;20012;-56
2022/07/26 09:32:32;;;;;;;7.82;1.55;;;;;;;;;;6212907;22;20304;-55
2022/07/26 09:35:09;;;;;;;7.35;2.45;;;;;;;;;;6233018;22;20370;-55
2022/07/26 09:37:39;;;;;;;8.52;1.73;;;;;;;;;;6233310;23;20042;-56
2022/07/26 09:40:06;;;;;;;4.78;1.95;;;;;;;;;;6235738;22;20058;-54
2022/07/26 09:42:33;;;;;;;6.82;1.70;;;;;;;;;;6232501;22;20012;-54
2022/07/26 09:44:59;;;;;;;6.93;2.45;;;;;;;;;;6235490;22;20051;-54
2022/07/26 09:47:36;;;;;;;7.22;1.80;;;;;;;;;;6228250;22;20099;-56
2022/07/26 09:50:09;;;;;;;8.27;2.28;;;;;;;;;;6232851;22;20012;-54
2022/07/26 09:52:36;;;;;;;6.50;2.20;;;;;;;;;;6222828;23;20016;-56
2022/07/26 09:55:06;;;;;;;8.60;2.00;;;;;;;;;;6225533;23;20087;-56
2022/07/26 09:57:34;;;;;;;6.38;2.08;;;;;;;;;;6228041;23;20012;-56
2022/07/26 10:00:02;;;;;;;9.40;1.98;;;;;;;;;;6231920;23;20012;-54
2022/07/26 10:02:28;;;;;;;6.05;1.67;;;;;;;;;;6231389;23;20091;-54
2022/07/26 10:04:55;;;;;;;5.97;1.80;;;;;;;;;;6235950;23;20095;-57
2022/07/26 10:07:22;;;;;;;7.18;1.50;;;;;;;;;;6228557;23;20258;-57
2022/07/26 10:09:52;;;;;;;3.97;1.60;;;;;;;;;;6208719;23;20042;-55
2022/07/26 10:12:25;;;;;;;3.58;1.30;;;;;;;;;;6210031;23;20051;-56
2022/07/26 10:14:54;;;;;;;10.88;2.17;;;;;;;;;;6235421;23;20035;-57
2022/07/26 10:17:44;;;;;;;9.40;2.10;;;;;;;;;;6229874;23;20043;-54
2022/07/26 10:20:31;;;;;;;4.00;1.50;;;;;;;;;;6235510;23;20039;-56
2022/07/26 10:22:57;;;;;;;7.28;2.10;;;;;;;;;;6231855;23;20076;-54
2022/07/26 10:25:44;;;;;;;3.97;1.90;;;;;;;;;;6230494;23;20040;-56
2022/07/26 10:28:22;;;;;;;6.07;1.85;;;;;;;;;;6236440;23;20026;-57
2022/07/26 10:30:48;;;;;;;5.32;1.75;;;;;;;;;;6225886;23;20032;-57
2022/07/26 10:33:16;;;;;;;11.90;1.73;;;;;;;;;;6207817;23;20051;-55
2022/07/26 10:35:43;;;;;;;7.72;1.73;;;;;;;;;;6223385;23;20012;-56
2022/07/26 10:38:11;;;;;;;7.50;1.80;;;;;;;;;;6238873;23;20023;-56
2022/07/26 10:40:38;;;;;;;10.32;1.80;;;;;;;;;;6233068;23;20019;-53
2022/07/26 10:43:09;;;;;;;6.15;2.35;;;;;;;;;;6227928;23;20024;-55
2022/07/26 10:45:37;;;;;;;9.80;1.98;;;;;;;;;;6235064;23;20016;-56
2022/07/26 10:48:11;;;;;;;9.38;2.10;;;;;;;;;;6205736;23;20023;-55
2022/07/26 10:50:38;;;;;;;7.68;1.83;;;;;;;;;;6204827;23;20063;-55
2022/07/26 10:53:06;;;;;;;8.18;2.53;;;;;;;;;;6233881;23;20161;-56
2022/07/26 10:55:44;;;;;;;13.48;2.33;;;;;;;;;;6227414;22;20047;-53
2022/07/26 10:58:11;;;;;;;3.90;1.73;;;;;;;;;;6236897;22;20016;-56
2022/07/26 11:00:39;;;;;;;12.80;2.30;;;;;;;;;;6231322;23;20312;-58
2022/07/26 11:03:06;;;;;;;6.72;2.20;;;;;;;;;;6233705;22;20016;-55
2022/07/26 11:05:33;;;;;;;8.80;2.53;;;;;;;;;;6226239;22;20020;-56
2022/07/26 11:08:08;;;;;;;4.70;1.83;;;;;;;;;;6231248;23;20454;-56
2022/07/26 11:10:36;;;;;;;8.82;2.40;;;;;;;;;;6234892;22;20016;-55
2022/07/26 11:13:04;;;;;;;5.47;1.63;;;;;;;;;;6231533;23;20016;-56
2022/07/26 11:15:31;;;;;;;6.28;2.03;;;;;;;;;;6239289;22;20012;-57
2022/07/26 11:18:10;;;;;;;7.95;2.08;;;;;;;;;;6231206;22;20066;-56
2022/07/26 11:20:36;;;;;;;6.30;1.97;;;;;;;;;;6229274;22;20022;-57
2022/07/26 11:23:03;;;;;;;5.47;1.77;;;;;;;;;;6226636;22;20016;-56
2022/07/26 11:25:30;;;;;;;7.72;1.73;;;;;;;;;;6226788;22;20065;-55
2022/07/26 11:28:01;;;;;;;4.50;1.30;;;;;;;;;;6238030;23;20401;-57
2022/07/26 11:30:29;;;;;;;3.05;1.42;;;;;;;;;;6210733;23;20020;-56
2022/07/26 11:32:57;;;;;;;2.95;1.40;;;;;;;;;;6233891;23;20020;-51
2022/07/26 11:35:26;;;;;;;4.97;1.70;;;;;;;;;;6226535;22;20016;-53
2022/07/26 11:37:54;;;;;;;10.75;2.08;;;;;;;;;;6233947;22;20370;-53
2022/07/26 11:40:41;;;;;;;5.32;1.40;;;;;;;;;;6229003;22;20043;-52
2022/07/26 11:43:08;;;;;;;6.78;1.60;;;;;;;;;;6236007;22;20016;-53
2022/07/26 11:45:34;;;;;;;9.65;1.92;;;;;;;;;;6230163;22;20145;-53
2022/07/26 11:48:01;;;;;;;7.35;1.35;;;;;;;;;;6241171;22;20023;-52
2022/07/26 11:50:29;;;;;;;2.20;1.38;;;;;;;;;;6223393;22;20041;-53
2022/07/26 11:52:55;;;;;;;5.18;1.35;;;;;;;;;;6230960;23;20016;-55
2022/07/26 11:55:26;;;;;;;1.92;1.42;;;;;;;;;;6226178;23;20426;-54
2022/07/26 11:57:53;;;;;;;4.70;1.60;;;;;;;;;;6207916;23;20026;-55
2022/07/26 12:00:22;;;;;;;3.97;1.30;;;;;;;;;;6223145;23;20012;-54
2022/07/26 12:02:48;;;;;;;7.22;1.98;;;;;;;;;;6195445;23;20020;-54
2022/07/26 12:05:16;;;;;;;2.22;1.40;;;;;;;;;;6222270;23;20020;-54
2022/07/26 12:07:57;;;;;;;2.42;1.00;;;;;;;;;;6204313;23;20343;-55
2022/07/26 12:10:24;;;;;;;2.38;1.27;;;;;;;;;;6223491;23;20461;-55
2022/07/26 12:13:05;;;;;;;5.63;1.17;;;;;;;;;;6202738;23;20012;-56
2022/07/26 12:15:43;;;;;;;2.35;1.02;;;;;;;;;;6230271;23;20016;-53
2022/07/26 12:18:09;;;;;;;3.63;1.13;;;;;;;;;;6206043;23;20035;-56
2022/07/26 12:20:36;;;;;;;1.88;1.27;;;;;;;;;;6214716;23;20016;-54
2022/07/26 12:23:04;;;;;;;2.22;1.40;;;;;;;;;;6229931;23;20104;-57
2022/07/26 12:25:34;;;;;;;2.85;1.25;;;;;;;;;;6220025;23;20020;-54
2022/07/26 12:28:01;;;;;;;3.53;1.00;;;;;;;;;;6233274;23;20078;-55
2022/07/26 12:30:34;;;;;;;4.50;1.80;;;;;;;;;;6183886;23;20587;-53
2022/07/26 12:33:01;;;;;;;4.50;1.30;;;;;;;;;;6226262;23;20044;-53
2022/07/26 12:35:31;;;;;;;3.25;1.00;;;;;;;;;;6226670;23;20324;-54
2022/07/26 12:37:57;;;;;;;5.10;1.63;;;;;;;;;;6231101;23;20107;-56
2022/07/26 12:40:27;;;;;;;4.72;1.75;;;;;;;;;;6207161;23;20011;-52
2022/07/26 12:42:55;;;;;;;4.63;1.45;;;;;;;;;;6231943;23;20012;-53
2022/07/26 12:45:22;;;;;;;7.03;1.58;;;;;;;;;;6234152;23;20462;-52
2022/07/26 12:47:50;;;;;;;3.13;1.60;;;;;;;;;;6231110;23;20016;-54
2022/07/26 12:50:18;;;;;;;4.75;1.60;;;;;;;;;;6238611;23;20086;-51
2022/07/26 12:52:47;;;;;;;2.72;1.58;;;;;;;;;;6226530;23;20306;-51
2022/07/26 12:55:16;;;;;;;3.65;1.00;;;;;;;;;;6184182;23;20287;-55
2022/07/26 12:57:45;;;;;;;2.72;0.80;;;;;;;;;;6212362;23;20016;-56
2022/07/26 13:00:12;;;;;;;3.20;0.90;;;;;;;;;;6221226;23;20572;-54
2022/07/26 13:02:40;;;;;;;1.52;0.90;;;;;;;;;;6196575;23;20420;-53
2022/07/26 13:05:06;;;;;;;3.33;1.15;;;;;;;;;;6207861;23;20076;-54
2022/07/26 13:07:33;;;;;;;2.75;0.80;;;;;;;;;;6219557;23;20029;-53
2022/07/26 13:10:00;;;;;;;1.95;0.77;;;;;;;;;;6177583;23;20012;-54
2022/07/26 13:12:26;;;;;;;2.42;0.80;;;;;;;;;;6220640;23;20159;-53
2022/07/26 13:14:54;;;;;;;1.00;0.73;;;;;;;;;;6185610;23;20087;-50
2022/07/26 13:17:21;;;;;;;1.63;0.70;;;;;;;;;;6217034;23;20197;-53
2022/07/26 13:19:47;;;;;;;1.88;0.77;;;;;;;;;;6216856;23;20522;-54
2022/07/26 13:22:14;;;;;;;1.65;0.60;;;;;;;;;;6221136;23;20019;-55
2022/07/26 13:24:40;;;;;;;2.58;0.68;;;;;;;;;;6189875;23;20383;-53
2022/07/26 13:27:07;;;;;;;2.92;0.80;;;;;;;;;;6207847;23;20327;-55
2022/07/26 13:29:34;;;;;;;1.15;0.55;;;;;;;;;;6215865;23;20013;-54
2022/07/26 13:32:03;;;;;;;1.23;0.60;;;;;;;;;;6209941;23;20036;-54
2022/07/26 13:34:30;;;;;;;0.80;0.57;;;;;;;;;;6192706;23;20012;-53
2022/07/26 13:36:57;;;;;;;1.15;0.57;;;;;;;;;;6216667;23;20241;-55
2022/07/26 13:39:24;;;;;;;1.05;0.50;;;;;;;;;;6221989;23;20036;-54
2022/07/26 13:41:51;;;;;;;0.80;0.52;;;;;;;;;;6212671;23;20019;-54
2022/07/26 13:44:18;;;;;;;0.85;0.50;;;;;;;;;;6218208;23;20020;-56
2022/07/26 13:46:44;;;;;;;1.48;0.57;;;;;;;;;;6212295;23;20027;-52
2022/07/26 13:49:13;;;;;;;0.52;0.40;;;;;;;;;;6217107;23;20012;-55
2022/07/26 13:54:34;;;;;;;0.47;0.30;;;;;;;;;;6155873;23;20700;-55
2022/07/26 13:57:03;;;;;;;0.70;0.32;;;;;;;;;;6174508;22;20056;-47
2022/07/26 13:59:29;;;;;;;1.90;0.30;;;;;;;;;;6187238;22;20016;-48
2022/07/26 14:01:57;;;;;;;0.60;0.45;;;;;;;;;;6229934;22;20026;-47
2022/07/26 14:04:26;;;;;;;0.52;0.20;;;;;;;;;;6235991;22;20026;-49
2022/07/26 14:06:53;;;;;;;0.88;0.10;;;;;;;;;;6243343;22;20095;-46
2022/07/26 14:09:20;;;;;;;0.08;0.08;;;;;;;;;;6252062;22;20031;-47
2022/07/26 14:11:47;;;;;;;0.00;0.00;;;;;;;;;;6242735;22;20576;-47
2022/07/26 14:14:14;;;;;;;0.00;0.00;;;;;;;;;;6245028;22;20016;-46
2022/07/26 14:16:41;;;;;;;0.00;0.00;;;;;;;;;;6241345;22;20519;-47
2022/07/26 14:19:08;;;;;;;0.00;0.00;;;;;;;;;;6254932;22;20016;-48
2022/07/26 14:21:36;;;;;;;0.00;0.00;;;;;;;;;;6232820;22;20528;-45
2022/07/26 14:24:03;;;;;;;0.00;0.00;;;;;;;;;;6248718;22;20022;-47
2022/07/26 14:26:29;;;;;;;0.00;0.00;;;;;;;;;;6240738;22;20027;-48
2022/07/26 14:28:56;;;;;;;0.00;0.00;;;;;;;;;;6250923;22;20012;-49
2022/07/26 14:31:23;;;;;;;0.00;0.00;;;;;;;;;;6239331;22;20018;-46
2022/07/26 14:33:49;;;;;;;0.00;0.00;;;;;;;;;;6245916;22;20020;-48
2022/07/26 14:36:16;;;;;;;0.00;0.00;;;;;;;;;;6248536;22;20246;-45
2022/07/26 14:38:44;;;;;;;0.00;0.00;;;;;;;;;;6244489;22;20040;-45
2022/07/26 14:41:11;;;;;;;0.00;0.00;;;;;;;;;;6244333;22;20012;-47
2022/07/26 14:43:41;;;;;;;0.00;0.00;;;;;;;;;;6245112;22;20016;-48
2022/07/26 14:46:08;;;;;;;0.00;0.00;;;;;;;;;;6249960;22;20020;-45
2022/07/26 14:48:38;;;;;;;0.00;0.00;;;;;;;;;;6231259;22;20011;-47
2022/07/26 14:51:05;;;;;;;0.00;0.00;;;;;;;;;;6248437;22;20043;-48
2022/07/26 14:53:32;;;;;;;0.00;0.00;;;;;;;;;;6205420;22;20023;-45